CHL3 weather

Church Lake Seaplane Base
Nova Scotia, Canada

Public forecast

Using degrees Celsius for public forecast. Weather courtesy of forecast.io.

METAR (pilot weather report)

Closest report is CFB Greenwood, 28.6 nm (53.0 km) NNW. Retrieved 2019/09/22 21:00 UTC (46 minutes ago):

CYZX 222100Z 23014G21KT 15SM FEW045 BKN250 23/14 A2997 RMK SC1CI5 SLP151

TAF (pilot weather forecast)

Closest forecast is CFB Greenwood, 28.6 nm (53.0 km) NNW. Retrieved 2019/09/22 18:33 UTC (3 hours ago):

TAF CYZX 221730Z 2218/2318 24018G28KT P6SM FEW040 BKN250 BECMG 2222/2224 23012KT BECMG 2312/2314 25020G30KT RMK NXT FCST BY 230000Z